Time;durP1;ratioP1;P1;durP2;ratioP2;P2;SDS_P1;SDS_P2;PMS_P1;PMS_P2;Temp;Humidity;BMP_temperature;BMP_pressure;BME280_temperature;BME280_humidity;BME280_pressure;Samples;Min_cycle;Max_cycle;Signal;HPM_P1;HPM_P2
2022/04/27 00:00:16;;;;;;;9.83;6.20;;;7.70;71.80;;;;;;4813756;29;20262;-84
2022/04/27 00:02:42;;;;;;;7.00;4.23;;;7.60;72.20;;;;;;4814196;29;20184;-84
2022/04/27 00:05:08;;;;;;;12.10;5.17;;;7.60;72.00;;;;;;4813757;29;20186;-84
2022/04/27 00:07:34;;;;;;;21.97;5.63;;;7.60;72.00;;;;;;4813740;29;20206;-84
2022/04/27 00:10:00;;;;;;;16.03;5.77;;;7.60;72.30;;;;;;4813687;29;20191;-84
2022/04/27 00:12:25;;;;;;;11.10;5.30;;;7.70;72.00;;;;;;4813654;29;20715;-84
2022/04/27 00:14:51;;;;;;;17.03;4.67;;;7.60;71.90;;;;;;4813611;29;20241;-84
2022/04/27 00:17:17;;;;;;;9.37;4.67;;;7.70;71.80;;;;;;4813451;29;20588;-84
2022/04/27 00:19:43;;;;;;;14.80;5.00;;;7.60;71.70;;;;;;4813595;29;20207;-84
2022/04/27 00:22:08;;;;;;;12.47;5.43;;;7.60;71.60;;;;;;4829887;29;20256;-84
2022/04/27 00:24:34;;;;;;;10.77;4.90;;;7.50;71.90;;;;;;4829907;29;20560;-84
2022/04/27 00:26:59;;;;;;;13.93;5.90;;;7.50;71.90;;;;;;4813477;29;20686;-84
2022/04/27 00:29:25;;;;;;;10.43;4.60;;;7.50;71.70;;;;;;4829792;29;20164;-84
2022/04/27 00:31:54;;;;;;;10.77;5.37;;;7.50;71.80;;;;;;4813631;29;20184;-84
2022/04/27 00:34:19;;;;;;;16.27;5.63;;;7.50;71.90;;;;;;4829894;29;20211;-84
2022/04/27 00:36:45;;;;;;;10.60;5.67;;;7.40;72.20;;;;;;4813515;29;20660;-84
2022/04/27 00:39:11;;;;;;;7.20;5.03;;;7.40;72.00;;;;;;4829654;29;20252;-84
2022/04/27 00:41:37;;;;;;;9.40;5.53;;;7.40;72.10;;;;;;4829784;29;20236;-84
2022/04/27 00:44:02;;;;;;;15.70;5.90;;;7.40;72.00;;;;;;4829766;29;20574;-84
2022/04/27 00:46:28;;;;;;;11.27;5.20;;;7.50;72.10;;;;;;4829888;29;20182;-83
2022/04/27 00:48:53;;;;;;;17.77;5.47;;;7.30;72.00;;;;;;4829658;29;20275;-83
2022/04/27 00:51:22;;;;;;;9.00;5.27;;;7.30;72.00;;;;;;4813320;29;20224;-83
2022/04/27 00:53:52;;;;;;;9.20;6.10;;;7.30;72.00;;;;;;4829928;29;20180;-83
2022/04/27 00:56:21;;;;;;;10.07;5.90;;;7.20;72.70;;;;;;4829730;29;20663;-83
2022/04/27 00:58:47;;;;;;;12.60;5.87;;;7.20;72.80;;;;;;4813271;29;20679;-83
2022/04/27 01:01:13;;;;;;;11.40;5.80;;;7.10;73.00;;;;;;4829563;29;20679;-83
2022/04/27 01:03:40;;;;;;;11.77;6.57;;;7.20;72.90;;;;;;4829686;29;20187;-83
2022/04/27 01:06:06;;;;;;;9.57;5.60;;;7.20;73.00;;;;;;4810573;29;20187;-83
2022/04/27 01:08:32;;;;;;;10.33;6.20;;;7.20;73.20;;;;;;4810311;29;20204;-84
2022/04/27 01:10:59;;;;;;;18.47;7.67;;;7.20;73.20;;;;;;4826878;29;20177;-84
2022/04/27 01:13:27;;;;;;;9.53;6.50;;;7.20;73.20;;;;;;4810411;29;20184;-83
2022/04/27 01:15:52;;;;;;;14.43;6.40;;;7.20;73.40;;;;;;4810327;29;20187;-84
2022/04/27 01:18:18;;;;;;;14.73;6.00;;;7.20;73.40;;;;;;4826266;29;20227;-84
2022/04/27 01:20:44;;;;;;;8.87;6.10;;;7.10;73.50;;;;;;4810057;29;20695;-84
2022/04/27 01:23:14;;;;;;;10.77;6.30;;;6.90;74.30;;;;;;4826404;29;20172;-84
2022/04/27 01:25:49;;;;;;;12.93;7.07;;;6.90;74.20;;;;;;4826292;29;20226;-83
2022/04/27 01:28:20;;;;;;;9.13;5.73;;;7.00;74.10;;;;;;4810205;29;20223;-83
2022/04/27 01:30:46;;;;;;;18.77;6.40;;;7.00;74.10;;;;;;4826311;29;20180;-83
2022/04/27 01:33:13;;;;;;;11.60;6.37;;;6.80;75.10;;;;;;4826291;29;20180;-84
2022/04/27 01:35:40;;;;;;;15.80;7.13;;;6.80;75.00;;;;;;4826273;29;20547;-83
2022/04/27 01:38:07;;;;;;;13.00;6.57;;;7.00;75.40;;;;;;4809919;29;20246;-83
2022/04/27 01:40:33;;;;;;;12.83;5.73;;;7.00;75.30;;;;;;4826119;29;20200;-83
2022/04/27 01:42:59;;;;;;;12.07;6.03;;;7.00;75.00;;;;;;4826127;29;20259;-83
2022/04/27 01:45:24;;;;;;;11.93;5.87;;;6.80;75.20;;;;;;4809824;29;20207;-83
2022/04/27 01:47:53;;;;;;;12.20;5.93;;;6.80;75.40;;;;;;4826003;29;20196;-83
2022/04/27 01:50:19;;;;;;;9.13;6.03;;;6.90;75.30;;;;;;4809701;29;20681;-83
2022/04/27 01:55:29;;;;;;;12.03;7.53;;;6.90;75.10;;;;;;4826435;29;20179;-83
2022/04/27 01:57:54;;;;;;;13.43;6.50;;;6.70;75.80;;;;;;4809589;29;20203;-83
2022/04/27 02:00:21;;;;;;;13.07;6.90;;;6.70;76.10;;;;;;4825764;29;20204;-83
2022/04/27 02:02:48;;;;;;;11.20;7.00;;;6.70;76.10;;;;;;4809511;29;20271;-83
2022/04/27 02:05:14;;;;;;;14.07;7.53;;;6.30;77.10;;;;;;4826071;29;20341;-83
2022/04/27 02:07:39;;;;;;;10.53;6.50;;;6.30;78.30;;;;;;4809359;29;20295;-83
2022/04/27 02:10:06;;;;;;;16.40;7.40;;;6.40;78.20;;;;;;4809405;29;20190;-83
2022/04/27 02:12:32;;;;;;;13.00;6.87;;;6.50;77.60;;;;;;4826007;29;20183;-83
2022/04/27 02:14:58;;;;;;;12.73;7.80;;;6.40;77.40;;;;;;4825756;29;20603;-83
2022/04/27 02:17:24;;;;;;;13.53;7.80;;;6.40;77.70;;;;;;4825584;29;20212;-83
2022/04/27 02:19:50;;;;;;;12.87;6.93;;;6.50;77.80;;;;;;4809201;29;20640;-83
2022/04/27 02:22:15;;;;;;;11.83;6.90;;;6.50;77.50;;;;;;4825536;29;20188;-83
2022/04/27 02:24:41;;;;;;;12.70;7.53;;;6.40;77.40;;;;;;4825769;29;20184;-84
2022/04/27 02:27:06;;;;;;;15.70;8.50;;;6.50;77.60;;;;;;4825482;29;20550;-83
2022/04/27 02:29:32;;;;;;;14.67;7.60;;;6.50;77.30;;;;;;4809042;29;20185;-83
2022/04/27 02:31:57;;;;;;;11.90;6.73;;;6.40;77.40;;;;;;4825525;29;20184;-83
2022/04/27 02:34:23;;;;;;;10.70;7.43;;;6.50;77.20;;;;;;4825321;29;20259;-83
2022/04/27 02:36:48;;;;;;;12.50;6.93;;;6.60;77.20;;;;;;4825545;29;20190;-83
2022/04/27 02:39:14;;;;;;;14.97;8.53;;;6.50;76.80;;;;;;4825128;29;20206;-83
2022/04/27 02:41:41;;;;;;;13.27;7.50;;;6.30;77.50;;;;;;4825197;29;20597;-83
2022/04/27 02:44:06;;;;;;;15.27;7.27;;;6.20;78.60;;;;;;4825180;29;20264;-83
2022/04/27 02:46:32;;;;;;;14.67;6.77;;;6.30;78.60;;;;;;4808741;29;20267;-83
2022/04/27 02:51:53;;;;;;;14.70;6.60;;;6.40;78.00;;;;;;4825476;29;20179;-83
2022/04/27 02:54:21;;;;;;;14.67;7.47;;;6.50;77.60;;;;;;4808620;29;20180;-83
2022/04/27 02:56:48;;;;;;;12.23;6.20;;;6.40;77.40;;;;;;4808574;29;20195;-83
2022/04/27 02:59:14;;;;;;;13.00;6.60;;;6.50;77.10;;;;;;4824847;29;20291;-83
2022/04/27 03:01:40;;;;;;;11.33;6.67;;;6.40;77.10;;;;;;4824965;29;20262;-83
2022/04/27 03:04:06;;;;;;;10.00;6.00;;;6.40;77.20;;;;;;4824850;29;20184;-83
2022/04/27 03:06:32;;;;;;;24.03;7.07;;;6.40;77.00;;;;;;4824879;29;20188;-83
2022/04/27 03:08:57;;;;;;;11.33;6.50;;;6.30;77.10;;;;;;4808313;29;20207;-83
2022/04/27 03:11:23;;;;;;;16.40;6.07;;;6.30;77.50;;;;;;4808353;29;20717;-83
2022/04/27 03:13:49;;;;;;;12.73;6.10;;;6.30;77.40;;;;;;4824757;29;20211;-83
2022/04/27 03:16:14;;;;;;;12.57;6.83;;;6.30;77.40;;;;;;4824709;29;20183;-83
2022/04/27 03:18:40;;;;;;;15.50;6.23;;;6.30;77.20;;;;;;4808112;29;20219;-83
2022/04/27 03:21:05;;;;;;;15.63;5.80;;;6.30;77.00;;;;;;4808184;29;20207;-83
2022/04/27 03:23:31;;;;;;;10.90;5.17;;;6.30;76.70;;;;;;4824692;29;20244;-83
2022/04/27 03:25:57;;;;;;;11.27;7.57;;;6.20;76.50;;;;;;4808136;29;20207;-83
2022/04/27 03:28:22;;;;;;;16.57;6.07;;;6.20;76.20;;;;;;4823994;29;20250;-83
2022/04/27 03:30:49;;;;;;;11.30;5.83;;;6.10;75.90;;;;;;4824812;29;20187;-83
2022/04/27 03:33:18;;;;;;;12.80;6.50;;;6.00;76.10;;;;;;4824553;29;20283;-83
2022/04/27 03:35:44;;;;;;;9.03;5.40;;;6.00;76.00;;;;;;4825006;29;20544;-83
2022/04/27 03:38:09;;;;;;;7.90;6.10;;;5.90;76.00;;;;;;4824452;29;20286;-83
2022/04/27 03:40:36;;;;;;;11.10;6.30;;;5.90;75.80;;;;;;4807845;29;20310;-83
2022/04/27 03:43:02;;;;;;;8.23;5.80;;;5.80;75.90;;;;;;4808281;29;20184;-83
2022/04/27 03:45:27;;;;;;;10.63;5.67;;;5.80;75.80;;;;;;4807925;29;20190;-83
2022/04/27 03:47:53;;;;;;;10.00;5.90;;;5.80;75.70;;;;;;4824293;29;20192;-83
2022/04/27 03:50:19;;;;;;;15.87;6.57;;;5.80;75.60;;;;;;4824285;29;20244;-84
2022/04/27 03:52:45;;;;;;;8.13;5.50;;;5.80;75.60;;;;;;4824535;29;20651;-84
2022/04/27 03:55:11;;;;;;;11.40;6.40;;;5.70;75.60;;;;;;4807727;29;20236;-84
2022/04/27 03:57:37;;;;;;;16.67;7.90;;;5.70;75.70;;;;;;4824194;29;20203;-84
2022/04/27 04:00:05;;;;;;;16.77;10.30;;;5.70;76.20;;;;;;4807686;29;20591;-84
2022/04/27 04:02:30;;;;;;;15.20;8.60;;;5.70;76.20;;;;;;4807703;29;20184;-83
2022/04/27 04:04:56;;;;;;;14.07;9.03;;;5.70;76.30;;;;;;4808045;29;20190;-83
2022/04/27 04:07:21;;;;;;;25.80;11.20;;;5.60;76.30;;;;;;4807634;29;20207;-83
2022/04/27 04:09:47;;;;;;;39.73;18.63;;;5.70;76.20;;;;;;4807726;29;20191;-83
2022/04/27 04:12:14;;;;;;;51.97;20.93;;;5.60;76.10;;;;;;4824041;29;20581;-83
2022/04/27 04:14:39;;;;;;;44.40;19.10;;;5.60;76.00;;;;;;4824304;29;20667;-83
2022/04/27 04:17:06;;;;;;;43.17;18.70;;;5.60;75.90;;;;;;4824055;29;20236;-83
2022/04/27 04:19:34;;;;;;;31.47;14.83;;;5.60;75.90;;;;;;4823917;29;20252;-83
2022/04/27 04:22:00;;;;;;;29.73;11.67;;;5.60;75.80;;;;;;4807695;29;20585;-83
2022/04/27 04:24:26;;;;;;;26.70;12.10;;;5.60;75.70;;;;;;4823938;29;20204;-83
2022/04/27 04:29:37;;;;;;;30.43;11.83;;;5.60;75.70;;;;;;4824334;29;20182;-83
2022/04/27 04:32:03;;;;;;;40.97;17.50;;;5.60;75.60;;;;;;4807489;29;20218;-83
2022/04/27 04:34:29;;;;;;;52.30;20.33;;;5.50;76.50;;;;;;4823700;29;20182;-83
2022/04/27 04:36:54;;;;;;;28.20;12.77;;;5.30;77.30;;;;;;4807424;29;20188;-83
2022/04/27 04:39:20;;;;;;;18.60;9.50;;;5.10;78.00;;;;;;4807342;29;20193;-83
2022/04/27 04:41:45;;;;;;;13.43;7.63;;;4.80;79.00;;;;;;4809486;29;20214;-83
2022/04/27 04:44:11;;;;;;;15.27;7.37;;;4.70;79.70;;;;;;4827299;29;20532;-83
2022/04/27 04:46:37;;;;;;;13.37;7.90;;;4.60;80.50;;;;;;4826957;29;20187;-83
2022/04/27 04:49:03;;;;;;;17.37;8.33;;;4.70;81.00;;;;;;4810658;29;20249;-84
2022/04/27 04:51:28;;;;;;;13.93;8.17;;;4.80;81.00;;;;;;4810712;29;20184;-83
2022/04/27 04:53:54;;;;;;;11.93;7.97;;;5.00;80.80;;;;;;4827129;29;20632;-83
2022/04/27 04:56:20;;;;;;;13.73;8.60;;;5.20;80.40;;;;;;4810527;29;20181;-83
2022/04/27 04:58:46;;;;;;;17.47;10.43;;;5.30;79.80;;;;;;4826831;29;20340;-83
2022/04/27 05:01:12;;;;;;;19.50;10.50;;;5.20;79.70;;;;;;4826652;29;20234;-83
2022/04/27 05:03:38;;;;;;;31.40;11.13;;;5.20;80.80;;;;;;4810828;29;20177;-83
2022/04/27 05:06:04;;;;;;;20.33;11.43;;;5.30;80.70;;;;;;4826966;29;20586;-83
2022/04/27 05:08:30;;;;;;;16.97;10.47;;;5.50;80.90;;;;;;4826697;29;20213;-83
2022/04/27 05:10:55;;;;;;;18.67;10.50;;;5.50;80.90;;;;;;4810338;29;20587;-83
2022/04/27 05:13:21;;;;;;;24.77;10.33;;;5.70;80.90;;;;;;4826613;29;20677;-83
2022/04/27 05:15:48;;;;;;;18.83;10.23;;;5.80;80.70;;;;;;4810303;29;20668;-83
2022/04/27 05:18:13;;;;;;;17.17;8.80;;;5.80;81.00;;;;;;4826450;29;20264;-83
2022/04/27 05:20:39;;;;;;;19.70;8.90;;;5.70;81.50;;;;;;4826822;29;20241;-83
2022/04/27 05:23:05;;;;;;;13.50;8.07;;;5.80;82.00;;;;;;4826677;29;20558;-83
2022/04/27 05:25:33;;;;;;;16.20;8.90;;;5.80;81.90;;;;;;4810193;29;20274;-83
2022/04/27 05:27:58;;;;;;;23.77;9.30;;;5.80;82.10;;;;;;4826267;29;20198;-83
2022/04/27 05:33:08;;;;;;;13.87;7.37;;;6.00;82.70;;;;;;4826307;29;20183;-83
2022/04/27 05:35:41;;;;;;;15.87;7.80;;;6.00;82.40;;;;;;4809934;29;20188;-83
2022/04/27 05:38:08;;;;;;;12.97;7.60;;;6.20;82.10;;;;;;4826149;29;20629;-83
2022/04/27 05:40:34;;;;;;;21.17;7.40;;;6.30;81.90;;;;;;4809761;29;20706;-83
2022/04/27 05:43:00;;;;;;;15.33;7.33;;;6.40;81.60;;;;;;4826099;29;20573;-83
2022/04/27 05:45:26;;;;;;;13.30;7.47;;;6.40;81.30;;;;;;4826028;29;20175;-83
2022/04/27 05:47:51;;;;;;;17.07;7.77;;;6.60;81.50;;;;;;4825916;29;20206;-83
2022/04/27 05:50:17;;;;;;;15.83;7.77;;;6.70;81.30;;;;;;4809742;29;20190;-84
2022/04/27 05:52:53;;;;;;;17.40;8.10;;;6.80;80.90;;;;;;4825544;29;20561;-84
2022/04/27 05:55:22;;;;;;;14.13;7.57;;;6.80;80.80;;;;;;4826318;29;20187;-84
2022/04/27 05:57:48;;;;;;;11.63;7.30;;;6.80;80.80;;;;;;4809497;29;20203;-84
2022/04/27 06:00:14;;;;;;;18.13;10.40;;;6.70;80.60;;;;;;4825818;29;20264;-84
2022/04/27 06:02:39;;;;;;;15.80;8.70;;;6.80;80.60;;;;;;4809493;29;20188;-83
2022/04/27 06:05:09;;;;;;;12.17;7.80;;;6.70;80.50;;;;;;4809494;29;20184;-83
2022/04/27 06:07:36;;;;;;;14.63;7.63;;;6.70;80.70;;;;;;4825947;29;20659;-84
2022/04/27 06:10:06;;;;;;;10.17;7.07;;;6.60;80.80;;;;;;4825651;29;20228;-83
2022/04/27 06:12:36;;;;;;;18.80;7.53;;;6.70;81.00;;;;;;4809361;29;20184;-83
2022/04/27 06:15:03;;;;;;;14.63;7.20;;;6.70;81.00;;;;;;4825655;29;20188;-84
2022/04/27 06:17:29;;;;;;;17.97;7.07;;;6.70;81.30;;;;;;4809327;29;20566;-83
2022/04/27 06:19:55;;;;;;;11.90;7.13;;;6.70;81.40;;;;;;4825550;29;20202;-83
2022/04/27 06:22:20;;;;;;;17.70;7.70;;;6.80;81.50;;;;;;4809189;29;20187;-83
2022/04/27 06:24:46;;;;;;;10.60;6.30;;;6.80;81.50;;;;;;4809135;29;20723;-83
2022/04/27 06:27:11;;;;;;;15.63;7.00;;;6.90;81.30;;;;;;4809062;29;20176;-84
2022/04/27 06:29:37;;;;;;;11.97;5.90;;;7.00;81.50;;;;;;4825373;29;20195;-83
2022/04/27 06:32:03;;;;;;;12.10;6.30;;;7.10;81.60;;;;;;4809062;29;20227;-83
2022/04/27 06:34:29;;;;;;;20.07;6.03;;;7.10;81.30;;;;;;4808946;29;20188;-83
2022/04/27 06:36:54;;;;;;;15.90;6.87;;;7.30;81.30;;;;;;4808893;29;20565;-83
2022/04/27 06:39:20;;;;;;;17.83;5.80;;;7.60;81.60;;;;;;4825214;29;20196;-83
2022/04/27 06:41:45;;;;;;;18.73;6.93;;;7.80;81.10;;;;;;4825308;29;20185;-83
2022/04/27 06:44:11;;;;;;;13.00;6.03;;;7.90;80.90;;;;;;4808749;29;20213;-83
2022/04/27 06:46:36;;;;;;;16.67;6.03;;;7.90;80.20;;;;;;4825146;29;20232;-84
2022/04/27 06:49:02;;;;;;;7.53;5.03;;;7.90;80.10;;;;;;4825065;29;20200;-84
2022/04/27 06:51:28;;;;;;;17.37;5.60;;;8.20;80.00;;;;;;4809144;29;20550;-84
2022/04/27 06:53:53;;;;;;;14.87;5.37;;;8.30;79.50;;;;;;4808584;29;20188;-84
2022/04/27 06:56:19;;;;;;;10.40;5.17;;;8.40;79.10;;;;;;4824992;29;20192;-84
2022/04/27 06:58:44;;;;;;;10.37;4.30;;;8.50;78.80;;;;;;4825162;29;20207;-84
2022/04/27 07:01:10;;;;;;;8.30;4.30;;;8.80;78.60;;;;;;4824898;29;20211;-84
2022/04/27 07:03:38;;;;;;;11.33;5.80;;;9.00;77.00;;;;;;4807754;29;20191;-84
2022/04/27 07:06:04;;;;;;;10.47;5.83;;;8.90;76.70;;;;;;4825207;29;20544;-84
2022/04/27 07:08:30;;;;;;;15.63;4.40;;;8.80;76.40;;;;;;4824749;29;20278;-84
2022/04/27 07:10:56;;;;;;;10.73;5.27;;;8.70;76.50;;;;;;4824831;29;20180;-84
2022/04/27 07:13:22;;;;;;;12.37;5.97;;;8.70;76.90;;;;;;4824809;29;20525;-84
2022/04/27 07:15:48;;;;;;;9.73;4.53;;;8.80;76.60;;;;;;4825024;29;20585;-84
2022/04/27 07:18:14;;;;;;;11.43;4.93;;;8.80;76.70;;;;;;4824528;29;20255;-84
2022/04/27 07:20:40;;;;;;;14.87;5.50;;;8.90;76.30;;;;;;4807895;29;20445;-83
2022/04/27 07:23:05;;;;;;;13.53;4.27;;;9.10;76.60;;;;;;4824930;29;20351;-85
2022/04/27 07:25:31;;;;;;;11.43;4.20;;;9.30;76.10;;;;;;4824905;29;20639;-84
2022/04/27 07:27:57;;;;;;;12.07;5.40;;;9.50;75.50;;;;;;4824621;29;20199;-85
2022/04/27 07:30:23;;;;;;;13.77;3.70;;;9.30;74.70;;;;;;4808102;29;20275;-85
2022/04/27 07:32:49;;;;;;;12.10;4.93;;;9.60;74.40;;;;;;4824482;29;20269;-85
2022/04/27 07:35:15;;;;;;;9.87;4.33;;;9.70;73.60;;;;;;4824477;29;20214;-85
2022/04/27 07:37:41;;;;;;;10.60;4.17;;;9.60;73.70;;;;;;4824663;29;20195;-85
2022/04/27 07:40:12;;;;;;;9.00;3.50;;;9.70;73.20;;;;;;4824386;29;20232;-84
2022/04/27 07:42:39;;;;;;;10.17;4.37;;;9.90;73.00;;;;;;4808477;29;20195;-84
2022/04/27 07:45:06;;;;;;;12.40;4.60;;;10.10;71.50;;;;;;4807896;29;20719;-84
2022/04/27 07:47:41;;;;;;;12.30;3.63;;;10.00;71.40;;;;;;4824244;29;20244;-84
2022/04/27 07:50:09;;;;;;;6.17;3.43;;;10.00;70.40;;;;;;4824359;29;20176;-84
2022/04/27 07:52:34;;;;;;;6.13;3.10;;;10.10;70.30;;;;;;4807858;29;20191;-84
2022/04/27 07:55:00;;;;;;;9.57;2.80;;;10.20;69.70;;;;;;4824776;29;20180;-84
2022/04/27 07:57:30;;;;;;;8.90;3.13;;;10.30;69.50;;;;;;4807994;29;20239;-84
2022/04/27 07:59:56;;;;;;;9.37;3.80;;;10.30;69.90;;;;;;4824276;29;20264;-84
2022/04/27 08:02:21;;;;;;;9.17;4.40;;;10.40;70.30;;;;;;4824427;29;20175;-84
2022/04/27 08:04:47;;;;;;;12.73;4.63;;;10.40;69.20;;;;;;4824421;29;20192;-84
2022/04/27 08:07:13;;;;;;;10.40;4.23;;;10.50;69.70;;;;;;4824478;29;20255;-84
2022/04/27 08:09:38;;;;;;;8.03;4.17;;;10.50;69.60;;;;;;4824134;29;20187;-84
2022/04/27 08:12:04;;;;;;;9.67;3.90;;;10.30;67.70;;;;;;4807674;29;20188;-84
2022/04/27 08:14:30;;;;;;;8.17;4.10;;;10.20;68.00;;;;;;4807843;29;20238;-84
2022/04/27 08:16:58;;;;;;;11.27;4.23;;;10.30;68.70;;;;;;4827454;29;20200;-84
2022/04/27 08:19:25;;;;;;;9.40;4.63;;;10.30;67.50;;;;;;4827714;29;20187;-84
2022/04/27 08:21:50;;;;;;;11.33;4.40;;;10.50;69.30;;;;;;4811202;29;20255;-84
2022/04/27 08:24:19;;;;;;;8.87;4.20;;;10.50;68.40;;;;;;4811109;29;20719;-84
2022/04/27 08:26:45;;;;;;;12.30;4.80;;;10.60;68.60;;;;;;4827435;29;20260;-85
2022/04/27 08:29:10;;;;;;;9.37;4.93;;;10.80;68.80;;;;;;4811067;29;20227;-85
2022/04/27 08:31:36;;;;;;;12.17;6.27;;;10.90;66.70;;;;;;4827346;29;20551;-84
2022/04/27 08:34:01;;;;;;;10.17;5.10;;;11.00;67.10;;;;;;4827296;29;20180;-85
2022/04/27 08:36:28;;;;;;;7.50;3.63;;;11.00;66.10;;;;;;4811030;29;20188;-84
2022/04/27 08:38:54;;;;;;;8.70;3.50;;;10.70;65.20;;;;;;4810871;29;20207;-84
2022/04/27 08:41:20;;;;;;;5.93;3.77;;;10.70;66.40;;;;;;4827020;29;20204;-84
2022/04/27 08:43:46;;;;;;;10.47;3.97;;;10.80;66.90;;;;;;4810833;29;20560;-84
2022/04/27 08:46:13;;;;;;;9.10;4.40;;;11.20;66.10;;;;;;4810776;29;20180;-84
2022/04/27 08:48:39;;;;;;;6.13;3.67;;;11.20;65.60;;;;;;4826895;29;20202;-84
2022/04/27 08:51:05;;;;;;;6.57;3.17;;;11.50;64.90;;;;;;4810716;29;20631;-84
2022/04/27 08:53:31;;;;;;;9.97;3.10;;;11.60;63.10;;;;;;4810771;29;20686;-84
2022/04/27 08:55:57;;;;;;;6.83;2.90;;;11.80;62.90;;;;;;4810880;29;20600;-84
2022/04/27 08:58:24;;;;;;;9.23;3.50;;;11.90;62.20;;;;;;4826821;29;20275;-84
2022/04/27 09:00:50;;;;;;;5.20;2.93;;;11.50;61.60;;;;;;4827015;29;20568;-84
2022/04/27 09:03:33;;;;;;;13.17;3.63;;;11.90;61.80;;;;;;4810543;29;20180;-84
2022/04/27 09:06:07;;;;;;;9.33;3.13;;;12.20;59.60;;;;;;4810480;29;20172;-85
2022/04/27 09:08:37;;;;;;;6.00;3.20;;;12.30;59.60;;;;;;4810404;29;20234;-85
2022/04/27 09:11:25;;;;;;;8.40;3.83;;;12.30;60.60;;;;;;4810431;29;20237;-85
2022/04/27 09:13:53;;;;;;;6.47;3.20;;;12.40;61.10;;;;;;4826604;29;20172;-85
2022/04/27 09:16:21;;;;;;;8.73;3.83;;;11.90;60.40;;;;;;4826527;29;20180;-85
2022/04/27 09:21:55;;;;;;;9.00;3.23;;;12.30;61.00;;;;;;4826761;29;20199;-86
2022/04/27 09:24:20;;;;;;;8.03;3.93;;;12.60;60.10;;;;;;4826620;29;20176;-86
2022/04/27 09:26:57;;;;;;;7.67;3.97;;;12.90;60.30;;;;;;4809354;29;20685;-86
2022/04/27 09:29:26;;;;;;;11.07;4.07;;;12.70;60.10;;;;;;4826416;29;20165;-85
2022/04/27 09:31:59;;;;;;;8.63;3.70;;;12.60;58.30;;;;;;4810003;29;20184;-87
2022/04/27 09:34:28;;;;;;;11.13;3.60;;;12.90;59.20;;;;;;4826262;29;20183;-86
2022/04/27 09:37:12;;;;;;;12.37;4.70;;;12.90;58.00;;;;;;4826205;29;20187;-86
2022/04/27 09:39:37;;;;;;;5.33;3.43;;;12.30;56.80;;;;;;4826391;29;20165;-86
2022/04/27 09:42:05;;;;;;;6.03;3.60;;;12.60;59.60;;;;;;4809885;29;20228;-86
2022/04/27 09:44:36;;;;;;;7.17;3.43;;;13.00;58.10;;;;;;4826102;29;20176;-85
2022/04/27 09:47:03;;;;;;;5.50;3.27;;;13.40;56.30;;;;;;4826007;29;20682;-85
2022/04/27 09:49:31;;;;;;;5.80;3.03;;;13.50;56.10;;;;;;4809728;29;20605;-86
2022/04/27 09:51:58;;;;;;;4.83;3.27;;;12.80;53.40;;;;;;4825992;29;20183;-85
2022/04/27 09:54:25;;;;;;;5.40;3.30;;;12.80;57.80;;;;;;4825968;29;20651;-85
2022/04/27 09:56:55;;;;;;;8.10;4.30;;;12.30;55.30;;;;;;4825988;29;20245;-85
2022/04/27 09:59:22;;;;;;;7.23;3.60;;;12.00;58.40;;;;;;4809675;29;20176;-86
2022/04/27 10:01:53;;;;;;;12.60;3.63;;;12.40;59.10;;;;;;4826203;29;20204;-87
2022/04/27 10:04:20;;;;;;;8.27;3.80;;;12.80;56.80;;;;;;4809521;29;20176;-86
2022/04/27 10:06:47;;;;;;;6.93;3.20;;;12.80;58.40;;;;;;4809567;29;20181;-86
2022/04/27 10:09:14;;;;;;;9.30;3.50;;;12.00;56.90;;;;;;4809367;29;20752;-86
2022/04/27 10:11:40;;;;;;;7.23;3.40;;;12.30;58.00;;;;;;4809608;29;20223;-86
2022/04/27 10:14:07;;;;;;;8.10;3.43;;;13.00;58.90;;;;;;4825687;29;20242;-85
2022/04/27 10:16:34;;;;;;;7.03;3.60;;;13.30;59.70;;;;;;4825909;29;20183;-85
2022/04/27 10:18:59;;;;;;;9.70;3.47;;;14.00;55.40;;;;;;4826129;29;20226;-86
2022/04/27 10:21:57;;;;;;;7.37;3.40;;;14.40;54.80;;;;;;4809151;29;20204;-86
2022/04/27 10:24:37;;;;;;;8.03;3.43;;;14.80;51.50;;;;;;4809223;29;20207;-86
2022/04/27 10:27:21;;;;;;;5.80;3.20;;;14.60;50.20;;;;;;4809042;29;20659;-86
2022/04/27 10:29:51;;;;;;;6.97;3.37;;;14.20;50.10;;;;;;4809133;29;20191;-86
2022/04/27 10:32:51;;;;;;;4.17;2.83;;;14.20;53.00;;;;;;4825487;29;20188;-86
2022/04/27 10:35:27;;;;;;;4.53;3.20;;;14.50;51.90;;;;;;4825344;29;20234;-86
2022/04/27 10:37:59;;;;;;;8.53;3.43;;;14.80;51.90;;;;;;4825277;29;20204;-86
2022/04/27 10:40:39;;;;;;;4.00;2.83;;;14.50;52.50;;;;;;4825169;29;20208;-86
2022/04/27 10:43:08;;;;;;;5.50;3.00;;;15.20;53.80;;;;;;4808883;29;20180;-87
2022/04/27 10:45:39;;;;;;;6.03;3.00;;;15.60;48.30;;;;;;4808797;29;20264;-87
2022/04/27 10:48:07;;;;;;;7.83;2.90;;;15.10;50.40;;;;;;4808814;29;20295;-86
2022/04/27 10:50:37;;;;;;;6.27;2.50;;;15.30;49.90;;;;;;4825433;29;20175;-86
2022/04/27 10:53:16;;;;;;;6.32;2.42;;;14.90;50.40;;;;;;4808707;29;20610;-86
2022/04/27 10:55:43;;;;;;;5.43;2.30;;;15.10;49.70;;;;;;4808643;29;20187;-86
2022/04/27 10:58:23;;;;;;;5.10;2.43;;;14.60;51.70;;;;;;4825180;29;20336;-86
2022/04/27 11:00:58;;;;;;;6.83;2.67;;;14.70;50.50;;;;;;4808551;29;20199;-85
2022/04/27 11:03:38;;;;;;;7.90;3.10;;;14.90;49.30;;;;;;4825036;29;20548;-86
2022/04/27 11:06:09;;;;;;;6.38;2.40;;;14.90;48.70;;;;;;4825238;29;20572;-86
2022/04/27 11:09:04;;;;;;;7.50;2.60;;;14.80;47.80;;;;;;4808465;29;20699;-86
2022/04/27 11:11:31;;;;;;;6.93;2.22;;;15.00;50.10;;;;;;4824883;29;20168;-86
2022/04/27 11:14:06;;;;;;;11.70;2.97;;;15.20;48.70;;;;;;4808386;29;20188;-86
2022/04/27 11:16:43;;;;;;;6.60;2.67;;;15.70;48.80;;;;;;4808364;29;20647;-86
2022/04/27 11:19:09;;;;;;;5.18;2.28;;;15.80;48.50;;;;;;4808271;29;20231;-86
2022/04/27 11:21:34;;;;;;;6.63;2.45;;;15.70;47.90;;;;;;4808168;29;20203;-87
2022/04/27 11:24:05;;;;;;;7.10;2.28;;;15.50;47.40;;;;;;4808294;29;20177;-87
2022/04/27 11:26:31;;;;;;;5.63;2.40;;;15.20;48.60;;;;;;4824726;29;20160;-86
2022/04/27 11:28:57;;;;;;;5.18;2.38;;;15.60;49.80;;;;;;4808042;29;20710;-87
2022/04/27 11:31:23;;;;;;;5.35;2.50;;;15.30;47.90;;;;;;4808155;29;20714;-87
2022/04/27 11:33:49;;;;;;;9.35;2.47;;;15.10;50.70;;;;;;4808422;29;20223;-88
2022/04/27 11:36:25;;;;;;;8.18;2.63;;;15.90;47.50;;;;;;4808168;29;20244;-86
2022/04/27 11:38:52;;;;;;;5.22;2.92;;;16.30;44.60;;;;;;4824474;29;20750;-87
2022/04/27 11:41:20;;;;;;;8.07;3.05;;;16.20;44.70;;;;;;4824499;29;20204;-87
2022/04/27 11:43:46;;;;;;;3.72;2.40;;;16.10;44.90;;;;;;4824768;29;20208;-89
2022/04/27 11:46:12;;;;;;;4.28;2.50;;;16.20;46.00;;;;;;4824829;29;20171;-87
2022/04/27 11:48:38;;;;;;;5.28;2.33;;;16.20;46.00;;;;;;4807958;29;20746;-87
2022/04/27 11:51:06;;;;;;;9.73;2.63;;;15.80;45.60;;;;;;4807561;29;20188;-87
2022/04/27 11:53:50;;;;;;;12.50;2.85;;;15.90;47.30;;;;;;4824450;29;20188;-87
2022/04/27 11:56:17;;;;;;;4.95;2.80;;;16.10;44.10;;;;;;4824656;29;20173;-87
2022/04/27 11:58:47;;;;;;;7.57;2.80;;;16.20;46.30;;;;;;4824289;29;20200;-88
2022/04/27 12:01:23;;;;;;;5.68;2.80;;;16.00;47.00;;;;;;4807806;29;20211;-87
2022/04/27 12:03:49;;;;;;;5.15;2.63;;;15.90;47.00;;;;;;4807907;29;20190;-86
2022/04/27 12:06:19;;;;;;;7.70;2.60;;;16.00;49.00;;;;;;4807891;29;20184;-87
2022/04/27 12:08:45;;;;;;;24.38;3.42;;;16.10;47.80;;;;;;4807741;29;20196;-86
2022/04/27 12:11:21;;;;;;;5.22;2.60;;;15.60;48.50;;;;;;4824142;29;20551;-87
2022/04/27 12:13:47;;;;;;;6.80;2.50;;;16.00;46.40;;;;;;4807783;29;20192;-87
2022/04/27 12:16:12;;;;;;;4.28;2.38;;;16.00;43.30;;;;;;4807811;29;20190;-87
2022/04/27 12:18:55;;;;;;;5.65;2.38;;;16.00;43.60;;;;;;4823956;29;20219;-87
2022/04/27 12:21:27;;;;;;;5.63;2.80;;;15.50;46.50;;;;;;4824186;29;20194;-88
2022/04/27 12:23:56;;;;;;;6.97;2.90;;;16.00;44.00;;;;;;4807789;29;20256;-87
2022/04/27 12:26:23;;;;;;;4.80;2.40;;;16.20;46.20;;;;;;4807801;29;20183;-86
2022/04/27 12:28:49;;;;;;;15.57;2.97;;;16.30;47.10;;;;;;4807870;29;20204;-86
2022/04/27 12:31:17;;;;;;;20.65;2.95;;;16.70;44.80;;;;;;4807628;29;20719;-87
2022/04/27 12:33:50;;;;;;;3.88;2.50;;;16.80;45.10;;;;;;4807634;29;20662;-87
2022/04/27 12:39:20;;;;;;;5.40;2.60;;;16.50;46.30;;;;;;4824092;29;20295;-85
2022/04/27 12:41:47;;;;;;;22.15;3.40;;;16.30;46.20;;;;;;4823826;29;20286;-86
2022/04/27 12:44:15;;;;;;;5.60;2.78;;;16.30;45.40;;;;;;4823852;29;20176;-86
2022/04/27 12:46:58;;;;;;;6.18;2.45;;;16.20;46.10;;;;;;4807460;29;20181;-85
2022/04/27 12:49:31;;;;;;;3.25;2.38;;;15.60;46.70;;;;;;4823826;29;20711;-86
2022/04/27 12:52:16;;;;;;;5.53;2.28;;;16.10;44.10;;;;;;4823788;29;20644;-86
2022/04/27 12:54:44;;;;;;;9.48;2.75;;;16.00;46.60;;;;;;4823767;29;20651;-86
2022/04/27 12:57:09;;;;;;;7.30;3.10;;;16.30;45.70;;;;;;4807270;29;20195;-85
2022/04/27 12:59:57;;;;;;;9.98;3.42;;;16.30;44.80;;;;;;4823617;29;20184;-86
2022/04/27 13:02:23;;;;;;;4.30;2.60;;;16.40;42.20;;;;;;4825071;29;20652;-86
2022/04/27 13:04:49;;;;;;;35.40;3.78;;;16.30;45.90;;;;;;4810543;29;20184;-86